Time;durP1;ratioP1;P1;durP2;ratioP2;P2;SDS_P1;SDS_P2;PMS_P1;PMS_P2;Temp;Humidity;BMP_temperature;BMP_pressure;BME280_temperature;BME280_humidity;BME280_pressure;Samples;Min_cycle;Max_cycle;Signal;HPM_P1;HPM_P2
2023/01/02 00:01:11;;;;;;;6.22;5.72;;;;;;;10.50;100.00;100952.56;5301173;28;20051;-83
2023/01/02 00:03:41;;;;;;;6.25;5.68;;;;;;;10.67;100.00;100974.09;5299371;28;20038;-83
2023/01/02 00:06:12;;;;;;;10.57;6.47;;;;;;;10.58;100.00;100943.19;5300090;28;20020;-82
2023/01/02 00:08:42;;;;;;;9.13;5.88;;;;;;;10.89;100.00;100984.84;5298607;28;20087;-82
2023/01/02 00:11:13;;;;;;;6.03;5.53;;;;;;;10.88;100.00;100975.94;5300261;28;20194;-82
2023/01/02 00:13:46;;;;;;;7.00;6.25;;;;;;;10.88;100.00;100964.31;5298553;28;20030;-84
2023/01/02 00:16:17;;;;;;;8.18;6.05;;;;;;;11.00;100.00;100983.84;5309397;28;20024;-81
2023/01/02 00:18:47;;;;;;;6.38;5.75;;;;;;;10.69;100.00;100931.41;5312453;28;20084;-82
2023/01/02 00:21:17;;;;;;;12.68;6.82;;;;;;;11.09;100.00;100988.56;5312420;28;20043;-81
2023/01/02 00:23:48;;;;;;;7.72;6.13;;;;;;;10.83;100.00;100938.06;5312137;28;20122;-81
2023/01/02 00:26:18;;;;;;;7.72;6.85;;;;;;;11.14;100.00;100990.50;5312150;28;20024;-81
2023/01/02 00:28:49;;;;;;;5.53;5.22;;;;;;;10.98;100.00;100950.88;5309515;28;20034;-82
2023/01/02 00:31:19;;;;;;;6.50;5.95;;;;;;;10.91;100.00;100942.19;5305651;28;20023;-82
2023/01/02 00:33:49;;;;;;;11.43;5.85;;;;;;;11.16;100.00;100988.34;5299513;28;20028;-83
2023/01/02 00:36:20;;;;;;;6.78;5.85;;;;;;;11.19;100.00;100977.03;5303000;28;20087;-83
2023/01/02 00:38:54;;;;;;;7.35;5.03;;;;;;;11.07;100.00;100960.16;5299490;28;20477;-82
2023/01/02 00:41:24;;;;;;;12.82;7.13;;;;;;;11.22;100.00;100976.53;5300476;28;20079;-82
2023/01/02 00:43:54;;;;;;;10.77;5.18;;;;;;;10.95;100.00;100937.91;5302544;28;20481;-82
2023/01/02 00:46:25;;;;;;;6.22;5.22;;;;;;;11.19;100.00;100971.63;5302611;28;20016;-82
2023/01/02 00:48:55;;;;;;;11.35;4.95;;;;;;;11.21;100.00;100964.06;5301790;28;20027;-83
2023/01/02 00:51:26;;;;;;;6.78;3.92;;;;;;;11.21;100.00;100969.47;5300165;28;20027;-82
2023/01/02 00:53:56;;;;;;;5.40;4.95;;;;;;;11.24;100.00;100985.19;5300645;28;20027;-82
2023/01/02 00:56:26;;;;;;;5.50;5.10;;;;;;;11.17;100.00;100960.25;5298486;28;20389;-82
2023/01/02 00:58:57;;;;;;;7.85;5.75;;;;;;;10.89;100.00;100926.22;5301029;28;20028;-83
2023/01/02 01:01:27;;;;;;;6.57;4.68;;;;;;;11.21;100.00;100968.66;5300584;28;20352;-82
2023/01/02 01:03:59;;;;;;;5.40;5.03;;;;;;;11.11;100.00;100961.28;5301046;28;20038;-82
2023/01/02 01:06:29;;;;;;;6.75;5.93;;;;;;;11.19;100.00;100958.09;5301655;28;20031;-82
2023/01/02 01:09:00;;;;;;;5.72;5.22;;;;;;;10.99;100.00;100937.09;5301409;28;20050;-82
2023/01/02 01:11:30;;;;;;;6.15;5.53;;;;;;;11.13;100.00;100956.44;5302584;28;20513;-82
2023/01/02 01:14:00;;;;;;;6.43;5.80;;;;;;;10.90;100.00;100916.22;5300667;28;20108;-82
2023/01/02 01:16:31;;;;;;;6.22;5.63;;;;;;;11.01;100.00;100932.25;5301092;28;20038;-82
2023/01/02 01:19:01;;;;;;;12.35;5.90;;;;;;;11.06;100.00;100935.00;5297949;28;20525;-82
2023/01/02 01:21:32;;;;;;;6.25;5.32;;;;;;;11.13;100.00;100951.03;5300021;28;20031;-82
2023/01/02 01:24:02;;;;;;;14.10;6.03;;;;;;;11.08;100.00;100942.88;5299543;27;20028;-82
2023/01/02 01:26:32;;;;;;;14.43;7.05;;;;;;;11.22;100.00;100964.88;5299229;28;20024;-82
2023/01/02 01:29:03;;;;;;;6.45;4.65;;;;;;;11.13;100.00;100959.94;5300355;28;20055;-82
2023/01/02 01:31:33;;;;;;;4.85;4.55;;;;;;;11.14;100.00;100963.47;5299510;28;20047;-82
2023/01/02 01:34:04;;;;;;;7.97;5.18;;;;;;;11.06;100.00;100951.22;5300062;28;20016;-82
2023/01/02 01:36:35;;;;;;;5.47;5.07;;;;;;;11.11;100.00;100955.88;5299033;28;20441;-83
2023/01/02 01:39:06;;;;;;;7.18;5.82;;;;;;;11.07;100.00;100955.56;5298371;28;20046;-82
2023/01/02 01:41:36;;;;;;;5.88;5.28;;;;;;;11.24;100.00;100978.97;5299612;28;20397;-82
2023/01/02 01:44:44;;;;;;;6.38;5.80;;;;;;;11.24;100.00;100985.19;5298531;28;20028;-82
2023/01/02 01:47:16;;;;;;;5.13;4.72;;;;;;;11.24;100.00;100979.78;5298883;28;20015;-82
2023/01/02 01:49:50;;;;;;;6.22;5.40;;;;;;;11.22;100.00;100978.41;5298281;28;20030;-82
2023/01/02 01:52:25;;;;;;;15.93;5.85;;;;;;;11.21;100.00;100979.47;5297693;28;20032;-82
2023/01/02 01:55:19;;;;;;;6.97;4.85;;;;;;;11.23;100.00;100982.75;5297751;28;20051;-82
2023/01/02 01:58:12;;;;;;;9.43;4.68;;;;;;;11.10;100.00;100967.75;5298213;28;20055;-82
2023/01/02 02:00:43;;;;;;;5.93;4.50;;;;;;;11.09;100.00;100961.53;5297238;28;20045;-82
2023/01/02 02:03:19;;;;;;;4.63;4.20;;;;;;;11.22;100.00;100986.50;5295501;28;20070;-82
2023/01/02 02:05:49;;;;;;;5.47;5.18;;;;;;;11.08;100.00;100972.59;5295375;28;20024;-82
2023/01/02 02:08:56;;;;;;;8.02;5.82;;;;;;;11.22;100.00;101002.72;5296224;28;20039;-82
2023/01/02 02:11:27;;;;;;;5.55;4.90;;;;;;;11.24;100.00;100987.88;5286824;28;20118;-82
2023/01/02 02:13:59;;;;;;;5.68;5.28;;;;;;;10.89;100.00;100931.63;5295649;28;20032;-82
2023/01/02 02:17:00;;;;;;;11.38;6.50;;;;;;;11.23;100.00;100996.25;5296479;28;20465;-82
2023/01/02 02:20:08;;;;;;;7.75;4.97;;;;;;;11.22;100.00;100998.16;5297746;28;20019;-82
2023/01/02 02:22:56;;;;;;;5.63;5.03;;;;;;;11.21;100.00;101001.91;5299728;28;20096;-82
2023/01/02 02:25:51;;;;;;;8.10;6.97;;;;;;;11.18;100.00;100999.72;5299774;28;20028;-82
2023/01/02 02:28:39;;;;;;;7.10;5.72;;;;;;;11.10;100.00;101000.19;5300203;28;20449;-82
2023/01/02 02:31:18;;;;;;;8.55;5.63;;;;;;;11.12;100.00;101008.84;5300365;28;20079;-82
2023/01/02 02:33:58;;;;;;;10.02;4.95;;;;;;;11.03;100.00;101005.78;5299820;28;20056;-82
2023/01/02 02:36:38;;;;;;;3.78;3.53;;;;;;;11.02;100.00;101000.63;5298186;28;20027;-82
2023/01/02 02:39:21;;;;;;;6.55;5.90;;;;;;;11.12;100.00;101011.56;5302522;28;20024;-82
2023/01/02 02:42:03;;;;;;;5.72;5.20;;;;;;;11.14;100.00;101014.81;5303017;27;20484;-82
2023/01/02 02:45:04;;;;;;;4.78;4.38;;;;;;;11.13;100.00;101014.00;5302069;28;20057;-82
2023/01/02 02:47:46;;;;;;;4.50;4.10;;;;;;;11.04;100.00;101001.19;5302547;28;20397;-82
2023/01/02 02:50:34;;;;;;;7.28;5.07;;;;;;;11.13;100.00;101021.28;5302557;28;20023;-82
2023/01/02 02:53:53;;;;;;;4.88;4.57;;;;;;;11.15;100.00;101013.75;5302032;28;20031;-81
2023/01/02 02:56:27;;;;;;;6.82;5.05;;;;;;;11.08;100.00;101002.31;5297712;28;20055;-82
2023/01/02 02:58:58;;;;;;;6.18;5.57;;;;;;;10.94;100.00;100979.50;5302517;28;20019;-82
2023/01/02 03:01:30;;;;;;;5.30;5.00;;;;;;;11.04;100.00;100996.59;5305204;27;20027;-82
2023/01/02 03:04:14;;;;;;;12.77;4.90;;;;;;;10.90;100.00;100962.16;5303370;28;20030;-82
2023/01/02 03:06:53;;;;;;;9.00;5.18;;;;;;;10.99;100.00;100982.22;5303084;28;20502;-82
2023/01/02 03:09:42;;;;;;;7.57;5.05;;;;;;;10.85;100.00;100964.81;5303999;28;20027;-82
2023/01/02 03:12:19;;;;;;;9.60;5.68;;;;;;;11.00;100.00;100983.84;5301576;28;20062;-81
2023/01/02 03:15:11;;;;;;;6.20;5.13;;;;;;;11.00;100.00;100986.56;5302478;27;20507;-82
2023/01/02 03:18:00;;;;;;;18.98;6.38;;;;;;;10.99;100.00;100993.03;5301548;28;20044;-82
2023/01/02 03:20:39;;;;;;;7.03;6.40;;;;;;;10.80;100.00;100969.09;5298383;28;20028;-82
2023/01/02 03:23:33;;;;;;;6.85;5.47;;;;;;;10.69;100.00;100950.31;5306072;28;20019;-81
2023/01/02 03:26:04;;;;;;;10.32;5.13;;;;;;;10.84;100.00;100969.41;5313942;28;20007;-81
2023/01/02 03:28:39;;;;;;;6.25;5.80;;;;;;;10.99;100.00;100995.75;5314255;28;20020;-81
2023/01/02 03:31:16;;;;;;;5.47;4.97;;;;;;;10.96;100.00;100994.38;5315198;28;20022;-81
2023/01/02 03:33:58;;;;;;;4.90;4.60;;;;;;;10.98;100.00;100996.81;5312623;28;20031;-83
2023/01/02 03:36:32;;;;;;;10.50;5.20;;;;;;;10.88;100.00;100989.44;5318131;22;20019;-86
2023/01/02 03:39:11;;;;;;;6.78;5.13;;;;;;;10.67;100.00;100961.41;5248796;28;20067;-86
2023/01/02 03:41:49;;;;;;;5.50;4.50;;;;;;;10.74;100.00;100972.78;5258042;28;20024;-86
2023/01/02 03:44:23;;;;;;;6.30;5.28;;;;;;;10.97;100.00;101006.78;5254902;28;20028;-86
2023/01/02 03:47:05;;;;;;;11.45;6.00;;;;;;;10.50;100.00;100936.34;5237433;28;20084;-86
2023/01/02 03:49:44;;;;;;;7.47;5.60;;;;;;;10.77;100.00;100996.59;5237053;28;20071;-86
2023/01/02 03:52:15;;;;;;;15.13;5.63;;;;;;;10.75;100.00;100982.53;5236977;28;20029;-86
2023/01/02 03:54:46;;;;;;;4.65;4.35;;;;;;;10.72;100.00;100982.22;5237147;28;20083;-86
2023/01/02 03:57:27;;;;;;;7.07;4.93;;;;;;;10.91;100.00;101012.44;5237332;28;20029;-86
2023/01/02 04:00:07;;;;;;;5.50;5.05;;;;;;;10.59;100.00;100956.44;5235693;28;20021;-86
2023/01/02 04:03:02;;;;;;;7.00;4.03;;;;;;;10.98;100.00;101030.03;5235769;28;20017;-85
2023/01/02 04:05:48;;;;;;;4.88;4.47;;;;;;;10.67;100.00;100996.50;5235758;28;20078;-87
2023/01/02 04:08:27;;;;;;;5.78;5.18;;;;;;;11.04;100.00;101041.72;5236698;28;20052;-87
2023/01/02 04:11:01;;;;;;;4.38;4.00;;;;;;;10.88;100.00;101019.16;5230096;28;20057;-87
2023/01/02 04:13:40;;;;;;;5.55;5.13;;;;;;;10.64;100.00;100970.00;5216135;28;20026;-86
2023/01/02 04:16:17;;;;;;;4.40;3.97;;;;;;;10.99;100.00;101033.56;5216612;28;20034;-86
2023/01/02 04:18:55;;;;;;;5.03;4.47;;;;;;;11.06;100.00;101037.72;5215411;28;20026;-86
2023/01/02 04:21:30;;;;;;;4.57;4.22;;;;;;;10.75;100.00;100997.94;5216578;28;20025;-86
2023/01/02 04:24:15;;;;;;;5.25;4.53;;;;;;;10.61;100.00;100999.41;5214617;28;20093;-87
2023/01/02 04:26:55;;;;;;;5.40;3.53;;;;;;;10.89;100.00;101045.09;5216982;28;20483;-87
2023/01/02 04:29:26;;;;;;;6.93;4.57;;;;;;;10.72;100.00;101010.03;5218036;28;20096;-87
2023/01/02 04:32:06;;;;;;;4.55;4.25;;;;;;;11.04;100.00;101055.25;5216884;28;20026;-88
2023/01/02 04:34:39;;;;;;;7.10;5.15;;;;;;;10.81;100.00;101022.03;5216435;28;20088;-88
2023/01/02 04:37:26;;;;;;;3.92;3.70;;;;;;;10.78;100.00;101030.66;5215012;28;20021;-87
2023/01/02 04:40:02;;;;;;;4.15;3.85;;;;;;;10.61;100.00;101000.22;5215914;28;20018;-88
2023/01/02 04:42:32;;;;;;;8.07;3.85;;;;;;;10.93;100.00;101042.72;5216206;28;20026;-88
2023/01/02 04:45:03;;;;;;;7.70;3.33;;;;;;;10.76;100.00;101030.09;5215768;28;20036;-87
2023/01/02 04:47:34;;;;;;;3.92;3.63;;;;;;;10.49;100.00;100984.13;5215663;28;20088;-88
2023/01/02 04:50:06;;;;;;;4.53;3.33;;;;;;;10.40;100.00;100965.94;5214794;28;20127;-88
2023/01/02 04:52:36;;;;;;;5.75;4.25;;;;;;;10.80;100.00;101028.50;5215247;28;20063;-89
2023/01/02 04:55:08;;;;;;;6.63;4.93;;;;;;;11.05;100.00;101060.41;5216454;28;20025;-88
2023/01/02 04:57:38;;;;;;;6.32;3.85;;;;;;;10.80;100.00;101025.81;5216299;28;20032;-88
2023/01/02 05:00:09;;;;;;;5.32;4.93;;;;;;;11.01;100.00;101063.84;5213806;28;20495;-88
2023/01/02 05:02:40;;;;;;;6.68;3.75;;;;;;;11.12;100.00;101103.44;5213741;28;20479;-87
2023/01/02 05:05:10;;;;;;;4.47;4.18;;;;;;;10.69;100.00;101029.47;5214633;28;20029;-86
2023/01/02 05:07:40;;;;;;;5.05;4.75;;;;;;;10.68;100.00;101029.75;5216274;28;20021;-86
2023/01/02 05:10:11;;;;;;;5.95;3.85;;;;;;;10.81;100.00;101048.25;5213965;28;20017;-84
2023/01/02 05:12:41;;;;;;;4.07;3.78;;;;;;;10.58;100.00;101018.81;5215426;28;20052;-85
2023/01/02 05:15:12;;;;;;;3.40;3.20;;;;;;;10.82;100.00;101055.28;5215952;28;20376;-86
2023/01/02 05:17:42;;;;;;;10.93;3.47;;;;;;;10.44;100.00;101007.56;5216862;28;20031;-85
2023/01/02 05:20:12;;;;;;;7.20;4.03;;;;;;;10.91;100.00;101085.38;5216172;28;20099;-87
2023/01/02 05:25:34;;;;;;;3.60;3.40;;;;;;;10.57;100.00;101055.78;5215892;28;20063;-86
2023/01/02 05:28:05;;;;;;;3.60;3.38;;;;;;;10.70;100.00;101082.41;5213299;28;20103;-86
2023/01/02 05:30:37;;;;;;;3.38;3.25;;;;;;;10.59;100.00;101083.38;5214708;28;20025;-86
2023/01/02 05:33:08;;;;;;;4.32;3.88;;;;;;;10.88;100.00;101115.59;5214122;28;20030;-86
2023/01/02 05:35:38;;;;;;;6.22;3.63;;;;;;;10.41;100.00;101064.75;5215023;28;20027;-86
2023/01/02 05:38:08;;;;;;;2.92;2.65;;;;;;;10.49;100.00;101075.94;5214155;28;20034;-86
2023/01/02 05:40:39;;;;;;;4.95;3.30;;;;;;;10.87;100.00;101133.69;5213948;28;20060;-86
2023/01/02 05:43:09;;;;;;;4.22;3.53;;;;;;;10.43;100.00;101093.13;5212615;28;20025;-86
2023/01/02 05:45:39;;;;;;;6.60;3.45;;;;;;;10.82;100.00;101137.13;5214355;28;20112;-86
2023/01/02 05:48:10;;;;;;;7.25;3.92;;;;;;;10.51;100.00;101105.41;5214230;28;20467;-85
2023/01/02 05:50:40;;;;;;;4.43;3.95;;;;;;;10.67;100.00;101131.56;5212521;28;20040;-86
2023/01/02 05:53:11;;;;;;;4.63;3.03;;;;;;;10.38;100.00;101106.59;5213352;28;20483;-86
2023/01/02 05:55:41;;;;;;;5.93;3.33;;;;;;;10.75;100.00;101154.59;5212669;28;20021;-86
2023/01/02 05:58:12;;;;;;;3.38;2.90;;;;;;;10.58;100.00;101167.34;5213088;28;20032;-86
2023/01/02 06:00:42;;;;;;;2.72;2.63;;;;;;;10.21;100.00;101142.75;5213427;28;20021;-86
2023/01/02 06:03:12;;;;;;;2.05;2.05;;;;;;;9.83;100.00;101155.03;5212490;28;20033;-85
2023/01/02 06:05:43;;;;;;;1.83;1.83;;;;;;;9.99;100.00;101232.50;5213442;28;20036;-85
2023/01/02 06:08:13;;;;;;;2.88;2.67;;;;;;;9.67;100.00;101217.88;5213863;28;20081;-85
2023/01/02 06:10:50;;;;;;;2.15;2.10;;;;;;;9.20;100.00;101180.31;5213036;28;20025;-86
2023/01/02 06:13:21;;;;;;;1.80;1.80;;;;;;;9.42;100.00;101240.59;5213488;28;20120;-85
2023/01/02 06:15:53;;;;;;;2.70;2.50;;;;;;;9.28;100.00;101239.22;5213625;28;20077;-85
2023/01/02 06:18:24;;;;;;;2.13;2.13;;;;;;;9.23;100.00;101241.81;5214532;28;20036;-87
2023/01/02 06:21:06;;;;;;;5.13;3.05;;;;;;;9.07;100.00;101229.06;5214442;28;20491;-86
2023/01/02 06:23:37;;;;;;;2.58;2.47;;;;;;;9.11;100.00;101258.00;5216350;28;20056;-87
2023/01/02 06:26:12;;;;;;;3.75;3.50;;;;;;;9.06;100.00;101274.03;5216079;28;20026;-86
2023/01/02 06:28:43;;;;;;;2.60;2.40;;;;;;;8.65;100.00;101210.38;5215413;28;20557;-87
2023/01/02 06:31:16;;;;;;;2.70;2.60;;;;;;;8.77;100.00;101238.13;5215757;28;20030;-88
2023/01/02 06:33:46;;;;;;;2.55;2.45;;;;;;;8.50;100.00;101206.50;5215171;28;20084;-89
2023/01/02 06:36:17;;;;;;;3.58;3.33;;;;;;;9.10;100.00;101288.69;5213853;28;20026;-89
2023/01/02 06:38:48;;;;;;;4.82;3.13;;;;;;;8.84;100.00;101254.16;5214019;28;20434;-85
2023/01/02 06:41:19;;;;;;;3.75;3.55;;;;;;;9.06;100.00;101309.06;5214380;28;20104;-86
2023/01/02 06:43:50;;;;;;;7.00;5.18;;;;;;;8.89;100.00;101285.78;5214338;28;20032;-85
2023/01/02 06:46:22;;;;;;;4.88;4.57;;;;;;;8.65;100.00;101269.63;5213220;28;20036;-85
2023/01/02 06:48:52;;;;;;;6.18;5.70;;;;;;;9.01;100.00;101348.53;5214756;28;20048;-86
2023/01/02 06:51:23;;;;;;;6.43;5.88;;;;;;;9.00;100.00;101336.94;5213411;28;20225;-86
2023/01/02 06:53:54;;;;;;;6.88;6.30;;;;;;;9.00;100.00;101349.59;5214191;28;20033;-85
2023/01/02 06:56:24;;;;;;;7.30;6.70;;;;;;;8.61;100.00;101306.13;5214361;28;20025;-85
2023/01/02 06:58:55;;;;;;;6.05;5.78;;;;;;;8.95;100.00;101366.44;5213644;28;20029;-86
2023/01/02 07:01:26;;;;;;;6.00;5.60;;;;;;;8.92;100.00;101375.03;5213099;28;20026;-85
2023/01/02 07:03:56;;;;;;;7.18;6.45;;;;;;;8.74;100.00;101354.38;5214463;28;20053;-85
2023/01/02 07:06:26;;;;;;;7.18;6.75;;;;;;;8.87;100.00;101379.44;5214621;28;20029;-85
2023/01/02 07:08:57;;;;;;;6.47;6.07;;;;;;;8.75;100.00;101377.53;5214131;28;20028;-85
2023/01/02 07:11:27;;;;;;;7.25;6.55;;;;;;;8.54;100.00;101361.13;5214709;28;20032;-85
2023/01/02 07:13:57;;;;;;;5.47;5.05;;;;;;;8.68;100.00;101398.34;5213882;28;20458;-85
2023/01/02 07:16:28;;;;;;;6.15;5.78;;;;;;;8.03;100.00;101297.88;5215381;28;20026;-86
2023/01/02 07:18:58;;;;;;;6.75;6.35;;;;;;;8.25;100.00;101352.81;5215641;28;20025;-86
2023/01/02 07:21:29;;;;;;;8.15;6.65;;;;;;;8.19;100.00;101339.44;5214582;28;20029;-85
2023/01/02 07:23:59;;;;;;;6.82;6.32;;;;;;;8.70;100.00;101423.19;5218633;28;20047;-86
2023/01/02 07:26:30;;;;;;;6.88;6.35;;;;;;;8.56;100.00;101412.84;5219254;28;20036;-85
2023/01/02 07:29:00;;;;;;;6.70;6.10;;;;;;;8.37;100.00;101396.72;5219408;28;20057;-85
2023/01/02 07:31:30;;;;;;;8.35;7.63;;;;;;;7.91;100.00;101322.03;5218540;28;20065;-85
2023/01/02 07:34:01;;;;;;;7.55;7.07;;;;;;;8.56;100.00;101439.78;5222965;28;20112;-85
2023/01/02 07:36:31;;;;;;;6.43;6.03;;;;;;;8.40;100.00;101403.53;5238809;28;20541;-84
2023/01/02 07:39:02;;;;;;;8.32;7.70;;;;;;;8.16;100.00;101382.94;5245631;28;20024;-85
2023/01/02 07:41:32;;;;;;;6.95;6.45;;;;;;;8.23;100.00;101389.88;5250820;28;20024;-85
2023/01/02 07:44:03;;;;;;;8.18;7.47;;;;;;;8.28;100.00;101413.41;5249827;28;20474;-86
2023/01/02 07:46:34;;;;;;;7.22;6.63;;;;;;;8.29;100.00;101413.19;5242852;28;20079;-87
2023/01/02 07:49:04;;;;;;;8.75;7.95;;;;;;;8.58;100.00;101472.66;5219684;28;20026;-87
2023/01/02 07:51:35;;;;;;;8.43;7.63;;;;;;;8.33;100.00;101427.03;5220047;28;20090;-87
2023/01/02 07:54:05;;;;;;;8.75;8.13;;;;;;;8.62;100.00;101490.03;5219068;28;20052;-89
2023/01/02 07:56:36;;;;;;;10.30;8.18;;;;;;;8.20;100.00;101448.69;5218073;28;20052;-87
2023/01/02 07:59:06;;;;;;;8.13;7.53;;;;;;;8.19;100.00;101438.97;5217951;28;20025;-87
2023/01/02 08:01:36;;;;;;;9.60;8.80;;;;;;;8.20;100.00;101446.00;5217242;28;20033;-87
2023/01/02 08:04:07;;;;;;;11.07;10.18;;;;;;;7.86;100.00;101407.09;5217834;28;20064;-86
2023/01/02 08:06:40;;;;;;;11.32;10.23;;;;;;;8.51;100.00;101509.63;5216423;28;20022;-83
2023/01/02 08:09:11;;;;;;;11.98;10.88;;;;;;;8.40;100.00;101492.34;5217347;28;20128;-85
2023/01/02 08:11:41;;;;;;;11.02;9.93;;;;;;;8.41;100.00;101494.00;5214861;28;20029;-85
2023/01/02 08:14:11;;;;;;;10.93;9.93;;;;;;;8.19;100.00;101469.41;5216707;28;20032;-86
2023/01/02 08:16:42;;;;;;;12.02;10.88;;;;;;;8.40;100.00;101503.94;5216913;28;20021;-84
2023/01/02 08:19:12;;;;;;;12.88;11.77;;;;;;;8.44;100.00;101517.75;5216454;28;20021;-85
2023/01/02 08:21:43;;;;;;;10.93;9.88;;;;;;;8.46;100.00;101518.38;5215670;28;20463;-85
2023/01/02 08:24:13;;;;;;;13.70;12.50;;;;;;;8.54;100.00;101536.09;5214755;28;20045;-85
2023/01/02 08:26:43;;;;;;;12.88;11.35;;;;;;;8.52;100.00;101530.09;5216292;28;20084;-86
2023/01/02 08:29:14;;;;;;;12.25;11.05;;;;;;;8.56;100.00;101540.19;5215556;28;20064;-87
2023/01/02 08:31:44;;;;;;;12.45;11.20;;;;;;;8.55;100.00;101540.44;5215108;28;20028;-85
2023/01/02 08:34:16;;;;;;;13.95;11.60;;;;;;;8.24;100.00;101514.47;5216705;28;20045;-85
2023/01/02 08:36:46;;;;;;;12.77;11.70;;;;;;;8.08;100.00;101487.09;5217808;28;20045;-86
2023/01/02 08:39:17;;;;;;;13.02;11.65;;;;;;;8.33;100.00;101526.63;5218273;28;20460;-86
2023/01/02 08:41:47;;;;;;;16.02;14.43;;;;;;;8.30;100.00;101529.72;5217860;28;20029;-85
2023/01/02 08:44:17;;;;;;;13.00;11.80;;;;;;;8.39;100.00;101560.69;5216183;28;20029;-86
2023/01/02 08:46:48;;;;;;;16.35;14.70;;;;;;;8.02;100.00;101479.94;5217716;28;20085;-87
2023/01/02 08:49:19;;;;;;;13.45;11.48;;;;;;;7.93;100.00;101483.97;5216533;28;20030;-87
2023/01/02 08:51:49;;;;;;;14.68;13.10;;;;;;;8.28;100.00;101556.84;5216390;28;20143;-87
2023/01/02 08:54:20;;;;;;;15.30;13.50;;;;;;;7.90;100.00;101502.41;5217619;28;20105;-88
2023/01/02 08:56:50;;;;;;;13.23;12.02;;;;;;;7.93;100.00;101500.09;5215863;28;20376;-88
2023/01/02 08:59:23;;;;;;;14.80;13.40;;;;;;;7.79;100.00;101495.91;5217723;28;20025;-88
2023/01/02 09:01:53;;;;;;;13.25;11.50;;;;;;;8.55;100.00;101613.94;5217131;28;20021;-88
2023/01/02 09:04:24;;;;;;;14.57;13.30;;;;;;;7.73;100.00;101500.31;5216991;28;20044;-88
2023/01/02 09:06:54;;;;;;;13.40;12.35;;;;;;;8.54;100.00;101635.69;5218293;28;20021;-88
2023/01/02 09:09:24;;;;;;;14.52;13.23;;;;;;;7.97;100.00;101541.66;5217850;28;20029;-88
2023/01/02 09:11:55;;;;;;;14.80;13.50;;;;;;;7.76;100.00;101501.75;5216386;28;20036;-88
2023/01/02 09:14:26;;;;;;;16.27;14.88;;;;;;;8.05;100.00;101549.44;5216305;28;20037;-88
2023/01/02 09:16:56;;;;;;;16.17;14.80;;;;;;;8.27;100.00;101568.66;5217325;28;20025;-88
2023/01/02 09:19:27;;;;;;;16.27;14.60;;;;;;;8.21;100.00;101553.41;5216380;28;20025;-88
2023/01/02 09:22:00;;;;;;;15.35;13.93;;;;;;;8.34;100.00;101568.63;5217869;28;20051;-87
2023/01/02 09:24:30;;;;;;;18.20;14.10;;;;;;;8.80;100.00;101630.81;5217049;28;20096;-87
2023/01/02 09:27:01;;;;;;;18.25;16.73;;;;;;;8.24;100.00;101522.53;5234508;28;20143;-86
2023/01/02 09:29:31;;;;;;;16.70;15.18;;;;;;;8.61;100.00;101607.66;5227463;28;20026;-87
2023/01/02 09:32:03;;;;;;;19.52;15.50;;;;;;;8.43;100.00;101568.09;5216542;28;20056;-88
2023/01/02 09:34:33;;;;;;;17.60;15.98;;;;;;;8.06;100.00;101509.91;5227317;28;20033;-88
2023/01/02 09:37:04;;;;;;;19.45;17.55;;;;;;;8.56;100.00;101585.13;5263966;22;20043;-84
2023/01/02 09:39:34;;;;;;;17.52;15.82;;;;;;;8.70;100.00;101622.44;5288438;28;20024;-83
2023/01/02 09:42:07;;;;;;;17.13;15.63;;;;;;;8.45;100.00;101587.53;5284674;28;20028;-84
2023/01/02 09:44:44;;;;;;;18.63;14.70;;;;;;;8.80;100.00;101649.69;5279948;28;20029;-84
2023/01/02 09:47:23;;;;;;;13.13;11.85;;;;;;;8.65;100.00;101629.56;5272397;28;20020;-84
2023/01/02 09:49:56;;;;;;;16.77;12.93;;;;;;;8.80;100.00;101655.06;5285773;28;20028;-84
2023/01/02 09:52:47;;;;;;;12.77;11.65;;;;;;;8.87;100.00;101662.25;5283327;28;20057;-82
2023/01/02 09:55:27;;;;;;;14.82;13.18;;;;;;;8.82;100.00;101657.53;5282936;28;20032;-82
2023/01/02 09:58:13;;;;;;;13.75;12.55;;;;;;;8.93;100.00;101674.81;5280929;28;20032;-84
2023/01/02 10:00:48;;;;;;;11.38;10.50;;;;;;;8.58;100.00;101604.59;5281981;28;20053;-82
2023/01/02 10:03:30;;;;;;;11.32;10.38;;;;;;;9.04;100.00;101671.34;5282223;28;20024;-84
2023/01/02 10:06:07;;;;;;;10.15;9.13;;;;;;;9.06;100.00;101667.38;5284401;28;20319;-83
2023/01/02 10:08:43;;;;;;;11.30;10.20;;;;;;;9.12;100.00;101669.19;5283382;28;20047;-82
2023/01/02 10:11:24;;;;;;;9.77;8.85;;;;;;;9.18;100.00;101683.63;5283312;28;20137;-85
2023/01/02 10:14:10;;;;;;;10.05;9.20;;;;;;;9.19;100.00;101684.47;5284109;28;20028;-84
2023/01/02 10:16:45;;;;;;;9.98;9.27;;;;;;;9.18;100.00;101686.34;5283614;28;20034;-84
2023/01/02 10:20:18;;;;;;;8.98;8.10;;;;;;;9.22;100.00;101687.53;5262604;27;20184;-65
2023/01/02 10:22:54;;;;;;;8.75;8.15;;;;;;;9.25;100.00;101687.03;5222052;28;20029;-65
2023/01/02 10:25:45;;;;;;;8.63;8.00;;;;;;;9.22;100.00;101690.22;5206065;28;20104;-65
2023/01/02 10:28:27;;;;;;;9.25;7.97;;;;;;;9.21;100.00;101685.88;5201156;28;20033;-65
2023/01/02 10:31:09;;;;;;;7.78;7.07;;;;;;;9.29;100.00;101693.63;5200661;28;20034;-65
2023/01/02 10:33:52;;;;;;;7.90;7.22;;;;;;;9.42;100.00;101693.47;5200614;28;20155;-64
2023/01/02 10:36:29;;;;;;;9.20;8.40;;;;;;;9.48;100.00;101700.66;5201628;28;20021;-64
2023/01/02 10:39:03;;;;;;;8.88;8.18;;;;;;;9.55;100.00;101694.31;5216247;28;20030;-64
2023/01/02 10:41:35;;;;;;;10.52;9.65;;;;;;;9.59;100.00;101701.72;5204713;28;20096;-63
2023/01/02 10:44:16;;;;;;;11.05;10.00;;;;;;;9.57;100.00;101703.84;5221878;28;20021;-64
2023/01/02 10:46:46;;;;;;;9.35;8.55;;;;;;;9.51;100.00;101676.97;5221438;28;20079;-64
2023/01/02 10:49:18;;;;;;;10.50;9.60;;;;;;;9.68;100.00;101691.44;5220525;28;20485;-64
2023/01/02 10:52:04;;;;;;;10.25;9.20;;;;;;;9.78;100.00;101707.91;5202096;28;20045;-64
2023/01/02 10:55:05;;;;;;;15.05;9.88;;;;;;;9.76;100.00;101697.34;5201210;28;20481;-64
2023/01/02 10:57:44;;;;;;;8.70;7.95;;;;;;;9.65;100.00;101698.13;5201889;28;20033;-64
2023/01/02 11:00:17;;;;;;;7.63;6.93;;;;;;;9.65;100.00;101694.59;5197976;28;20036;-64
2023/01/02 11:02:54;;;;;;;9.57;8.68;;;;;;;9.32;100.00;101662.72;5202594;28;20032;-64
2023/01/02 11:05:29;;;;;;;8.90;8.27;;;;;;;9.60;100.00;101695.28;5317942;22;20048;-80
2023/01/02 11:08:10;;;;;;;8.40;7.57;;;;;;;9.63;100.00;101697.53;5229939;28;20115;-81
2023/01/02 11:10:41;;;;;;;8.27;7.75;;;;;;;9.68;100.00;101694.97;5230599;28;20040;-81
2023/01/02 11:13:14;;;;;;;8.40;7.88;;;;;;;9.77;100.00;101692.78;5230684;28;20032;-81
2023/01/02 11:15:52;;;;;;;7.63;6.93;;;;;;;9.89;100.00;101707.09;5231017;28;20079;-81
2023/01/02 11:18:29;;;;;;;8.98;7.20;;;;;;;9.92;100.00;101700.44;5231039;28;20043;-80
2023/01/02 11:21:03;;;;;;;6.38;5.97;;;;;;;9.66;100.00;101669.28;5231220;28;20033;-81
2023/01/02 11:23:35;;;;;;;6.85;6.25;;;;;;;9.89;100.00;101701.72;5213187;28;20079;-81
2023/01/02 11:26:26;;;;;;;7.47;7.05;;;;;;;9.90;100.00;101700.66;5312167;22;20045;-65
2023/01/02 11:29:07;;;;;;;6.65;6.25;;;;;;;9.92;100.00;101695.84;5262302;28;20073;-64
2023/01/02 11:31:44;;;;;;;5.43;5.13;;;;;;;9.84;100.00;101698.88;5248158;28;20480;-65
2023/01/02 11:34:39;;;;;;;6.60;6.00;;;;;;;9.84;100.00;101704.28;5231770;28;20031;-65
2023/01/02 11:37:16;;;;;;;12.00;11.10;;;;;;;9.87;100.00;101719.19;5247310;28;20041;-64
2023/01/02 11:40:23;;;;;;;7.63;6.53;;;;;;;9.83;100.00;101718.81;5247843;28;20373;-65
2023/01/02 11:45:45;;;;;;;5.38;4.95;;;;;;;9.75;100.00;101721.84;5245525;28;20052;-65
2023/01/02 11:48:22;;;;;;;6.28;5.82;;;;;;;9.78;100.00;101726.78;5248328;28;20048;-65
2023/01/02 11:50:53;;;;;;;5.20;4.90;;;;;;;9.78;100.00;101724.09;5246596;28;20029;-65
2023/01/02 11:53:32;;;;;;;5.72;5.43;;;;;;;9.77;100.00;101738.63;5247804;28;20039;-65
2023/01/02 11:56:12;;;;;;;6.07;5.68;;;;;;;9.71;100.00;101745.75;5248357;28;20108;-65
2023/01/02 11:59:17;;;;;;;9.18;4.78;;;;;;;9.68;100.00;101734.59;5248398;28;20103;-65